createdAt,value
2024-01-31T00:02:21.578Z,5.07
2024-01-31T00:04:49.165Z,6.15
2024-01-31T00:07:16.626Z,6.22
2024-01-31T00:09:44.187Z,4.88
2024-01-31T00:12:11.610Z,5.47
2024-01-31T00:14:38.905Z,4.65
2024-01-31T00:17:06.436Z,5.30
2024-01-31T00:19:33.934Z,4.78
2024-01-31T00:22:01.957Z,5.30
2024-01-31T00:24:29.660Z,4.93
2024-01-31T00:26:57.143Z,6.63
2024-01-31T00:29:24.549Z,7.25
2024-01-31T00:31:52.317Z,6.88
2024-01-31T00:34:20.001Z,5.75
2024-01-31T00:36:47.502Z,7.90
2024-01-31T00:39:15.330Z,10.13
2024-01-31T00:41:42.903Z,9.55
2024-01-31T00:44:10.364Z,7.82
2024-01-31T00:46:42.290Z,7.60
2024-01-31T00:49:09.896Z,7.00
2024-01-31T00:51:37.411Z,10.30
2024-01-31T00:54:05.793Z,5.50
2024-01-31T00:56:33.184Z,5.43
2024-01-31T00:59:01.873Z,6.85
2024-01-31T01:01:29.493Z,6.10
2024-01-31T01:03:57.309Z,6.47
2024-01-31T01:06:27.530Z,6.60
2024-01-31T01:08:55.099Z,6.20
2024-01-31T01:11:24.041Z,7.82
2024-01-31T01:13:51.512Z,5.85
2024-01-31T01:16:19.118Z,6.95
2024-01-31T01:18:46.737Z,6.55
2024-01-31T01:21:14.269Z,7.32
2024-01-31T01:23:41.904Z,6.72
2024-01-31T01:26:09.237Z,7.53
2024-01-31T01:28:36.811Z,4.93
2024-01-31T01:31:05.307Z,8.32
2024-01-31T01:33:32.818Z,5.38
2024-01-31T01:36:00.209Z,6.85
2024-01-31T01:38:29.740Z,11.70
2024-01-31T01:40:57.107Z,6.78
2024-01-31T01:43:25.418Z,9.05
2024-01-31T01:45:56.843Z,7.65
2024-01-31T01:48:24.420Z,7.60
2024-01-31T01:50:51.891Z,8.95
2024-01-31T01:53:19.576Z,11.20
2024-01-31T01:55:47.245Z,5.07
2024-01-31T01:58:17.503Z,6.03
2024-01-31T02:00:46.878Z,7.05
2024-01-31T02:03:15.454Z,12.20
2024-01-31T02:05:45.088Z,5.80
2024-01-31T02:08:13.343Z,7.50
2024-01-31T02:10:40.965Z,11.45
2024-01-31T02:13:08.424Z,7.00
2024-01-31T02:15:35.985Z,8.23
2024-01-31T02:18:03.658Z,8.57
2024-01-31T02:20:31.147Z,8.40
2024-01-31T02:22:58.836Z,11.35
2024-01-31T02:25:26.616Z,13.90
2024-01-31T02:27:54.036Z,10.75
2024-01-31T02:30:21.746Z,8.80
2024-01-31T02:32:49.129Z,15.10
2024-01-31T02:35:16.733Z,11.82
2024-01-31T02:37:45.072Z,11.52
2024-01-31T02:40:12.724Z,15.50
2024-01-31T02:42:40.129Z,13.00
2024-01-31T02:45:07.813Z,17.27
2024-01-31T02:47:35.274Z,14.60
2024-01-31T02:50:02.837Z,15.05
2024-01-31T02:52:30.353Z,16.08
2024-01-31T02:54:59.605Z,12.88
2024-01-31T02:57:27.040Z,15.63
2024-01-31T02:59:54.487Z,15.02
2024-01-31T03:02:21.960Z,16.35
2024-01-31T03:04:49.448Z,17.13
2024-01-31T03:07:17.176Z,17.45
2024-01-31T03:09:44.622Z,15.13
2024-01-31T03:12:12.011Z,16.38
2024-01-31T03:14:39.611Z,15.55
2024-01-31T03:17:07.312Z,18.10
2024-01-31T03:19:36.977Z,16.80
2024-01-31T03:22:06.568Z,18.38
2024-01-31T03:24:34.026Z,19.27
2024-01-31T03:27:01.340Z,16.52
2024-01-31T03:29:28.763Z,20.15
2024-01-31T03:31:56.244Z,17.23
2024-01-31T03:34:23.781Z,17.02
2024-01-31T03:36:51.224Z,17.83
2024-01-31T03:39:20.187Z,16.70
2024-01-31T03:41:47.713Z,15.15
2024-01-31T03:44:15.211Z,15.77
2024-01-31T03:46:42.788Z,14.57
2024-01-31T03:49:10.493Z,17.77
2024-01-31T03:51:38.316Z,16.70
2024-01-31T03:54:06.007Z,14.50
2024-01-31T03:56:33.463Z,17.00
2024-01-31T03:59:00.884Z,17.98
2024-01-31T04:01:28.536Z,13.88
2024-01-31T04:03:55.982Z,18.10
2024-01-31T04:06:23.597Z,16.90
2024-01-31T04:08:51.848Z,16.25
2024-01-31T04:11:19.229Z,14.90
2024-01-31T04:13:46.793Z,16.27
2024-01-31T04:16:17.892Z,14.65
2024-01-31T04:18:45.457Z,16.48
2024-01-31T04:21:19.476Z,16.92
2024-01-31T04:23:46.934Z,15.77
2024-01-31T04:26:14.458Z,15.27
2024-01-31T04:28:42.046Z,12.60
2024-01-31T04:31:18.764Z,13.25
2024-01-31T04:33:46.633Z,15.55
2024-01-31T04:36:14.223Z,12.15
2024-01-31T04:38:41.791Z,12.80
2024-01-31T04:41:09.267Z,13.90
2024-01-31T04:43:36.739Z,16.20
2024-01-31T04:46:04.165Z,14.18
2024-01-31T04:48:32.030Z,16.33
2024-01-31T04:50:59.508Z,13.43
2024-01-31T04:53:26.980Z,12.35
2024-01-31T04:55:54.445Z,12.93
2024-01-31T04:58:21.907Z,13.25
2024-01-31T05:00:49.294Z,11.30
2024-01-31T05:03:17.061Z,11.10
2024-01-31T05:05:44.595Z,15.07
2024-01-31T05:08:12.098Z,9.95
2024-01-31T05:10:41.510Z,11.95
2024-01-31T05:13:09.033Z,14.13
2024-01-31T05:15:36.520Z,12.65
2024-01-31T05:18:04.417Z,11.38
2024-01-31T05:20:31.889Z,10.07
2024-01-31T05:22:59.374Z,12.85
2024-01-31T05:25:27.101Z,11.45
2024-01-31T05:27:54.531Z,9.88
2024-01-31T05:30:21.871Z,10.80
2024-01-31T05:32:49.563Z,13.20
2024-01-31T05:35:17.003Z,16.42
2024-01-31T05:37:44.572Z,12.52
2024-01-31T05:40:17.810Z,10.10
2024-01-31T05:42:46.376Z,12.60
2024-01-31T05:45:13.842Z,13.25
2024-01-31T05:47:41.338Z,13.35
2024-01-31T05:50:09.151Z,11.20
2024-01-31T05:52:36.978Z,9.35
2024-01-31T05:55:04.706Z,10.98
2024-01-31T05:57:32.193Z,12.38
2024-01-31T05:59:59.592Z,11.95
2024-01-31T06:02:27.363Z,17.58
2024-01-31T06:04:54.754Z,12.32
2024-01-31T06:07:22.221Z,16.42
2024-01-31T06:09:49.802Z,11.80
2024-01-31T06:12:17.157Z,10.70
2024-01-31T06:14:44.537Z,14.43
2024-01-31T06:17:12.067Z,13.07
2024-01-31T06:19:39.672Z,12.70
2024-01-31T06:22:08.457Z,12.32
2024-01-31T06:24:36.231Z,16.55
2024-01-31T06:27:04.417Z,16.00
2024-01-31T06:29:31.779Z,15.80
2024-01-31T06:32:01.770Z,15.02
2024-01-31T06:34:29.556Z,18.90
2024-01-31T06:36:59.783Z,15.73
2024-01-31T06:39:27.582Z,20.30
2024-01-31T06:41:54.968Z,17.20
2024-01-31T06:44:22.408Z,15.57
2024-01-31T06:46:51.404Z,15.52
2024-01-31T06:49:22.017Z,17.05
2024-01-31T06:51:49.594Z,16.17
2024-01-31T06:54:17.071Z,18.85
2024-01-31T06:56:44.739Z,15.80
2024-01-31T06:59:12.070Z,17.80
2024-01-31T07:01:39.687Z,17.27
2024-01-31T07:04:10.152Z,18.00
2024-01-31T07:06:37.871Z,18.20
2024-01-31T07:09:05.895Z,18.40
2024-01-31T07:11:33.553Z,19.27
2024-01-31T07:14:00.921Z,19.55
2024-01-31T07:16:28.326Z,22.30
2024-01-31T07:18:56.486Z,20.08
2024-01-31T07:21:27.490Z,24.52
2024-01-31T07:23:55.030Z,20.27
2024-01-31T07:26:27.674Z,20.77
2024-01-31T07:28:55.262Z,21.02
2024-01-31T07:31:22.697Z,21.83
2024-01-31T07:33:50.229Z,21.10
2024-01-31T07:36:17.707Z,24.08
2024-01-31T07:38:45.493Z,23.35
2024-01-31T07:41:13.718Z,25.70
2024-01-31T07:43:43.890Z,21.88
2024-01-31T07:46:11.831Z,23.17
2024-01-31T07:48:39.652Z,22.08
2024-01-31T07:51:07.550Z,24.60
2024-01-31T07:53:34.825Z,23.35
2024-01-31T07:56:05.467Z,25.67
2024-01-31T07:58:33.888Z,22.27
2024-01-31T08:01:01.638Z,21.02
2024-01-31T08:03:29.562Z,22.85
2024-01-31T08:05:57.130Z,22.27
2024-01-31T08:08:24.625Z,24.35
2024-01-31T08:10:52.314Z,23.77
2024-01-31T08:13:19.741Z,22.45
2024-01-31T08:15:47.087Z,23.08
2024-01-31T08:18:14.503Z,20.80
2024-01-31T08:20:41.987Z,23.00
2024-01-31T08:23:09.924Z,26.83
2024-01-31T08:25:37.691Z,20.58
2024-01-31T08:28:06.276Z,22.73
2024-01-31T08:30:33.679Z,22.42
2024-01-31T08:33:01.442Z,24.50
2024-01-31T08:35:28.957Z,23.38
2024-01-31T08:37:57.471Z,24.13
2024-01-31T08:40:24.974Z,23.38
2024-01-31T08:42:55.983Z,24.35
2024-01-31T08:45:23.667Z,25.25
2024-01-31T08:47:51.105Z,28.52
2024-01-31T08:50:18.770Z,23.23
2024-01-31T08:52:46.205Z,21.33
2024-01-31T08:55:15.181Z,19.08
2024-01-31T08:57:43.685Z,18.02
2024-01-31T09:00:11.458Z,18.67
2024-01-31T09:02:38.913Z,18.38
2024-01-31T09:05:06.703Z,17.67
2024-01-31T09:07:34.198Z,16.73
2024-01-31T09:10:01.736Z,17.17
2024-01-31T09:12:29.745Z,18.27
2024-01-31T09:14:57.276Z,17.23
2024-01-31T09:17:24.666Z,17.30
2024-01-31T09:19:52.132Z,18.13
2024-01-31T09:22:19.598Z,18.98
2024-01-31T09:24:47.342Z,18.77
2024-01-31T09:27:14.884Z,16.70
2024-01-31T09:29:44.398Z,19.27
2024-01-31T09:32:12.156Z,15.73
2024-01-31T09:34:39.767Z,16.88
2024-01-31T09:37:07.630Z,13.57
2024-01-31T09:39:35.264Z,13.10
2024-01-31T09:42:03.919Z,15.07
2024-01-31T09:44:31.897Z,16.38
2024-01-31T09:47:00.953Z,14.23
2024-01-31T09:49:28.549Z,11.65
2024-01-31T09:52:02.951Z,10.68
2024-01-31T09:54:30.967Z,10.68
2024-01-31T09:56:58.782Z,13.40
2024-01-31T09:59:29.650Z,12.00
2024-01-31T10:02:01.129Z,12.00
2024-01-31T10:04:28.587Z,16.10
2024-01-31T10:06:56.019Z,13.90
2024-01-31T10:09:23.480Z,12.18
2024-01-31T10:11:50.922Z,11.05
2024-01-31T10:14:18.456Z,13.18
2024-01-31T10:16:46.159Z,14.35
2024-01-31T10:19:14.420Z,13.68
2024-01-31T10:21:41.951Z,10.88
2024-01-31T10:24:10.859Z,9.65
2024-01-31T10:26:38.662Z,11.65
2024-01-31T10:29:09.906Z,11.10
2024-01-31T10:31:40.727Z,9.25
2024-01-31T10:34:10.456Z,9.90
2024-01-31T10:39:13.618Z,9.32
2024-01-31T10:41:44.359Z,11.35
2024-01-31T10:44:16.374Z,6.55
2024-01-31T10:46:47.018Z,7.93
2024-01-31T10:49:17.843Z,7.35
2024-01-31T10:51:48.194Z,7.10
2024-01-31T10:54:18.640Z,7.03
2024-01-31T10:56:47.133Z,6.57
2024-01-31T10:59:14.798Z,5.07
2024-01-31T11:01:52.072Z,5.22
2024-01-31T11:04:20.100Z,5.50
2024-01-31T11:06:53.726Z,6.03
2024-01-31T11:09:25.134Z,5.87
2024-01-31T11:12:02.791Z,5.38
2024-01-31T11:14:34.134Z,5.45
2024-01-31T11:17:11.888Z,8.00
2024-01-31T11:19:48.499Z,5.07
2024-01-31T11:22:16.142Z,4.75
2024-01-31T11:24:50.821Z,5.32
2024-01-31T11:27:19.679Z,6.80
2024-01-31T11:29:50.360Z,7.88
2024-01-31T11:32:18.156Z,5.38
2024-01-31T11:34:45.748Z,5.80
2024-01-31T11:37:13.322Z,6.63
2024-01-31T11:39:41.151Z,3.92
2024-01-31T11:42:10.032Z,4.40
2024-01-31T11:44:38.115Z,4.05
2024-01-31T11:47:05.856Z,4.80
2024-01-31T11:49:33.454Z,6.13
2024-01-31T11:52:00.911Z,3.90
2024-01-31T11:54:29.655Z,6.57
2024-01-31T11:56:57.161Z,9.00
2024-01-31T11:59:24.565Z,3.83
2024-01-31T12:01:52.341Z,3.78
2024-01-31T12:04:19.986Z,4.53
2024-01-31T12:06:47.482Z,8.85
2024-01-31T12:09:15.399Z,8.50
2024-01-31T12:11:43.215Z,6.40
2024-01-31T12:14:10.660Z,7.80
2024-01-31T12:16:44.282Z,3.47
2024-01-31T12:19:12.159Z,6.90
2024-01-31T12:21:46.146Z,5.72
2024-01-31T12:24:13.939Z,5.13
2024-01-31T12:26:41.476Z,5.45
2024-01-31T12:29:09.484Z,4.10
2024-01-31T12:31:36.876Z,5.05
2024-01-31T12:34:04.398Z,4.18
2024-01-31T12:36:31.842Z,6.68
2024-01-31T12:38:59.356Z,4.75
2024-01-31T12:41:27.033Z,5.30
2024-01-31T12:43:55.665Z,7.55
2024-01-31T12:46:25.861Z,4.03
2024-01-31T12:48:53.406Z,7.63
2024-01-31T12:51:20.805Z,3.65
2024-01-31T12:53:48.358Z,4.25
2024-01-31T12:56:15.676Z,4.55
2024-01-31T12:58:43.068Z,6.15
2024-01-31T13:01:10.680Z,5.15
2024-01-31T13:03:38.408Z,6.25
2024-01-31T13:06:08.500Z,4.72
2024-01-31T13:08:38.382Z,5.03
2024-01-31T13:11:10.309Z,4.55
2024-01-31T13:13:41.590Z,7.05
2024-01-31T13:16:09.626Z,8.20
2024-01-31T13:18:37.581Z,7.28
2024-01-31T13:21:05.814Z,8.88
2024-01-31T13:23:34.718Z,8.30
2024-01-31T13:26:02.541Z,6.13
2024-01-31T13:28:29.938Z,6.88
2024-01-31T13:30:57.258Z,7.70
2024-01-31T13:33:24.839Z,6.10
2024-01-31T13:35:52.622Z,4.53
2024-01-31T13:38:19.963Z,4.40
2024-01-31T13:40:47.644Z,6.88
2024-01-31T13:43:15.073Z,6.75
2024-01-31T13:45:42.508Z,4.55
2024-01-31T13:48:12.301Z,9.10
2024-01-31T13:50:40.131Z,8.18
2024-01-31T13:53:07.575Z,5.93
2024-01-31T13:55:35.087Z,9.23
2024-01-31T13:58:02.556Z,7.00
2024-01-31T14:00:30.044Z,5.43
2024-01-31T14:02:57.594Z,5.97
2024-01-31T14:05:25.044Z,5.88
2024-01-31T14:07:52.465Z,6.22
2024-01-31T14:10:20.025Z,6.03
2024-01-31T14:12:47.429Z,7.28
2024-01-31T14:15:14.913Z,7.13
2024-01-31T14:17:42.512Z,3.83
2024-01-31T14:20:10.157Z,5.13
2024-01-31T14:22:56.524Z,9.38
2024-01-31T14:25:27.738Z,6.30
2024-01-31T14:27:55.069Z,3.83
2024-01-31T14:30:22.467Z,9.73
2024-01-31T14:32:50.052Z,7.63
2024-01-31T14:35:17.742Z,6.80
2024-01-31T14:37:45.313Z,8.98
2024-01-31T14:40:14.156Z,7.07
2024-01-31T14:42:43.967Z,6.82
2024-01-31T14:45:11.774Z,6.10
2024-01-31T14:47:39.233Z,4.85
2024-01-31T14:50:06.989Z,7.40
2024-01-31T14:52:35.566Z,6.40
2024-01-31T14:55:04.810Z,7.40
2024-01-31T14:57:32.197Z,5.70
2024-01-31T14:59:59.622Z,9.80
2024-01-31T15:02:27.075Z,5.38
2024-01-31T15:04:54.446Z,9.18
2024-01-31T15:07:22.154Z,6.53
2024-01-31T15:09:49.745Z,7.97
2024-01-31T15:12:21.888Z,5.93
2024-01-31T15:14:49.471Z,9.48
2024-01-31T15:17:17.183Z,5.93
2024-01-31T15:19:48.967Z,8.18
2024-01-31T15:22:16.788Z,8.02
2024-01-31T15:24:44.556Z,6.82
2024-01-31T15:27:11.995Z,9.38
2024-01-31T15:29:39.334Z,6.95
2024-01-31T15:32:09.394Z,6.45
2024-01-31T15:34:38.436Z,4.50
2024-01-31T15:37:05.845Z,6.68
2024-01-31T15:39:33.690Z,8.20
2024-01-31T15:42:01.119Z,6.38
2024-01-31T15:44:28.693Z,5.57
2024-01-31T15:46:56.866Z,8.55
2024-01-31T15:49:29.619Z,7.32
2024-01-31T15:51:58.386Z,8.27
2024-01-31T15:54:25.793Z,4.50
2024-01-31T15:56:54.014Z,8.35
2024-01-31T15:59:22.758Z,5.20
2024-01-31T16:01:50.409Z,8.40
2024-01-31T16:04:17.810Z,5.47
2024-01-31T16:06:56.944Z,8.07
2024-01-31T16:09:27.786Z,6.15
2024-01-31T16:11:55.531Z,7.15
2024-01-31T16:14:23.058Z,10.77
2024-01-31T16:16:50.500Z,5.35
2024-01-31T16:19:18.814Z,8.90
2024-01-31T16:21:47.841Z,6.32
2024-01-31T16:24:15.697Z,7.40
2024-01-31T16:26:43.304Z,11.35
2024-01-31T16:29:10.784Z,5.70
2024-01-31T16:31:42.765Z,5.93
2024-01-31T16:34:10.796Z,5.45
2024-01-31T16:36:38.598Z,7.45
2024-01-31T16:39:06.177Z,7.03
2024-01-31T16:41:33.765Z,6.10
2024-01-31T16:44:01.334Z,6.93
2024-01-31T16:46:28.731Z,7.50
2024-01-31T16:48:57.747Z,7.75
2024-01-31T16:51:25.302Z,5.40
2024-01-31T16:53:52.860Z,6.85
2024-01-31T16:56:20.597Z,5.70
2024-01-31T16:58:48.155Z,6.40
2024-01-31T17:01:16.974Z,6.32
2024-01-31T17:03:44.678Z,6.75
2024-01-31T17:06:12.322Z,5.93
2024-01-31T17:08:39.763Z,3.67
2024-01-31T17:11:07.372Z,4.28
2024-01-31T17:13:35.083Z,6.47
2024-01-31T17:16:03.158Z,6.28
2024-01-31T17:18:30.855Z,5.38
2024-01-31T17:20:58.488Z,7.05
2024-01-31T17:23:26.055Z,5.68
2024-01-31T17:25:53.492Z,7.78
2024-01-31T17:28:21.187Z,5.03
2024-01-31T17:30:48.672Z,7.15
2024-01-31T17:33:16.205Z,7.95
2024-01-31T17:35:43.878Z,6.22
2024-01-31T17:38:11.305Z,10.20
2024-01-31T17:40:38.955Z,8.23
2024-01-31T17:43:06.573Z,6.60
2024-01-31T17:45:34.204Z,6.20
2024-01-31T17:48:01.945Z,5.47
2024-01-31T17:50:29.484Z,8.13
2024-01-31T17:52:57.144Z,9.10
2024-01-31T17:55:26.125Z,8.20
2024-01-31T17:57:53.703Z,7.30
2024-01-31T18:00:22.158Z,9.70
2024-01-31T18:02:53.937Z,8.57
2024-01-31T18:05:21.611Z,7.32
2024-01-31T18:07:48.987Z,11.95
2024-01-31T18:10:16.431Z,9.45
2024-01-31T18:12:44.042Z,7.20
2024-01-31T18:15:19.399Z,9.90
2024-01-31T18:17:49.175Z,9.98
2024-01-31T18:20:17.182Z,7.47
2024-01-31T18:22:45.400Z,3.60
2024-01-31T18:25:13.312Z,4.13
2024-01-31T18:27:42.639Z,6.68
2024-01-31T18:30:10.671Z,6.57
2024-01-31T18:32:38.424Z,4.07
2024-01-31T18:35:07.188Z,6.75
2024-01-31T18:37:34.643Z,7.05
2024-01-31T18:40:01.996Z,6.40
2024-01-31T18:42:29.464Z,5.72
2024-01-31T18:44:56.870Z,6.57
2024-01-31T18:47:24.618Z,8.52
2024-01-31T18:49:52.212Z,12.43
2024-01-31T18:52:19.767Z,4.57
2024-01-31T18:54:47.333Z,7.00
2024-01-31T18:57:14.863Z,7.38
2024-01-31T18:59:43.677Z,5.85
2024-01-31T19:02:11.371Z,4.88
2024-01-31T19:04:38.656Z,7.50
2024-01-31T19:07:06.156Z,7.15
2024-01-31T19:09:33.720Z,12.52
2024-01-31T19:12:01.320Z,6.47
2024-01-31T19:14:28.959Z,8.52
2024-01-31T19:17:00.311Z,9.88
2024-01-31T19:19:30.205Z,5.85
2024-01-31T19:21:57.766Z,10.05
2024-01-31T19:24:25.222Z,10.98
2024-01-31T19:26:52.644Z,4.88
2024-01-31T19:29:20.214Z,9.10
2024-01-31T19:31:47.970Z,8.27
2024-01-31T19:34:15.420Z,9.15
2024-01-31T19:36:42.959Z,7.75
2024-01-31T19:39:10.797Z,10.75
2024-01-31T19:41:39.760Z,8.00
2024-01-31T19:44:07.485Z,6.07
2024-01-31T19:46:35.456Z,6.82
2024-01-31T19:49:03.110Z,4.78
2024-01-31T19:51:30.766Z,7.55
2024-01-31T19:53:58.411Z,6.47
2024-01-31T19:56:25.896Z,7.00
2024-01-31T19:58:53.564Z,8.43
2024-01-31T20:01:21.325Z,8.07
2024-01-31T20:03:48.742Z,4.63
2024-01-31T20:06:16.348Z,6.90
2024-01-31T20:08:43.963Z,6.13
2024-01-31T20:11:14.943Z,9.30
2024-01-31T20:13:42.730Z,6.38
2024-01-31T20:16:14.452Z,7.57
2024-01-31T20:18:46.015Z,6.40
2024-01-31T20:21:14.291Z,7.30
2024-01-31T20:23:41.999Z,8.93
2024-01-31T20:26:09.610Z,6.90
2024-01-31T20:28:37.002Z,9.88
2024-01-31T20:31:04.766Z,7.72
2024-01-31T20:33:32.386Z,7.95
2024-01-31T20:36:00.186Z,5.35
2024-01-31T20:38:27.848Z,7.00
2024-01-31T20:40:55.267Z,5.82
2024-01-31T20:43:22.791Z,6.05
2024-01-31T20:45:50.440Z,7.72
2024-01-31T20:48:23.216Z,10.70
2024-01-31T20:50:57.849Z,5.00
2024-01-31T20:53:25.206Z,8.45
2024-01-31T20:55:52.697Z,8.68
2024-01-31T20:58:20.226Z,6.75
2024-01-31T21:00:47.733Z,6.63
2024-01-31T21:03:15.354Z,6.88
2024-01-31T21:05:43.201Z,5.38
2024-01-31T21:08:10.657Z,4.70
2024-01-31T21:10:38.732Z,6.43
2024-01-31T21:13:09.717Z,4.43
2024-01-31T21:15:38.925Z,7.18
2024-01-31T21:18:06.561Z,4.28
2024-01-31T21:20:34.273Z,6.03
2024-01-31T21:23:01.720Z,8.90
2024-01-31T21:25:29.135Z,5.68
2024-01-31T21:27:57.499Z,5.90
2024-01-31T21:30:25.034Z,6.57
2024-01-31T21:32:53.976Z,7.57
2024-01-31T21:35:21.568Z,8.45
2024-01-31T21:37:49.662Z,5.03
2024-01-31T21:40:17.301Z,6.28
2024-01-31T21:42:44.937Z,6.88
2024-01-31T21:45:15.744Z,7.32
2024-01-31T21:47:43.340Z,7.63
2024-01-31T21:50:11.269Z,4.80
2024-01-31T21:52:38.637Z,7.00
2024-01-31T21:55:06.353Z,6.43
2024-01-31T21:57:33.921Z,8.68
2024-01-31T22:00:02.139Z,7.15
2024-01-31T22:02:31.727Z,9.10
2024-01-31T22:04:59.334Z,7.72
2024-01-31T22:07:26.914Z,8.65
2024-01-31T22:09:54.313Z,8.07
2024-01-31T22:12:22.228Z,8.07
2024-01-31T22:14:49.610Z,5.80
2024-01-31T22:17:17.276Z,9.73
2024-01-31T22:19:45.017Z,7.05
2024-01-31T22:22:12.645Z,6.43
2024-01-31T22:24:40.011Z,9.20
2024-01-31T22:27:07.509Z,9.20
2024-01-31T22:29:35.006Z,11.07
2024-01-31T22:32:05.482Z,10.95
2024-01-31T22:34:33.828Z,10.55
2024-01-31T22:37:03.156Z,10.45
2024-01-31T22:39:32.035Z,11.55
2024-01-31T22:41:59.841Z,10.32
2024-01-31T22:44:27.350Z,10.73
2024-01-31T22:46:54.744Z,14.73
2024-01-31T22:49:22.524Z,12.85
2024-01-31T22:51:50.261Z,12.95
2024-01-31T22:54:17.865Z,14.73
2024-01-31T22:56:45.762Z,10.15
2024-01-31T22:59:14.007Z,17.55
2024-01-31T23:01:42.067Z,19.08
2024-01-31T23:04:09.625Z,20.80
2024-01-31T23:06:37.633Z,22.50
2024-01-31T23:09:06.545Z,22.50
2024-01-31T23:11:34.484Z,15.38
2024-01-31T23:14:01.898Z,29.52
2024-01-31T23:16:29.715Z,17.88
2024-01-31T23:18:57.418Z,20.48
2024-01-31T23:21:24.933Z,16.70
2024-01-31T23:23:52.564Z,22.55
2024-01-31T23:26:20.510Z,27.35
2024-01-31T23:28:47.945Z,19.50
2024-01-31T23:31:15.363Z,34.55
2024-01-31T23:33:43.683Z,25.15
2024-01-31T23:36:11.445Z,25.00
2024-01-31T23:38:38.815Z,37.42
2024-01-31T23:41:06.780Z,24.27
2024-01-31T23:43:34.176Z,25.67
2024-01-31T23:46:02.093Z,26.70
2024-01-31T23:48:29.856Z,28.02
2024-01-31T23:50:57.322Z,32.58
2024-01-31T23:53:24.657Z,32.80
2024-01-31T23:55:53.710Z,35.65
2024-01-31T23:58:23.157Z,36.63
